createdAt,value
2023-05-21T00:02:25.000Z,7.56
2023-05-21T00:07:25.000Z,7.2
2023-05-21T00:12:25.000Z,7.29
2023-05-21T00:17:25.000Z,7.31
2023-05-21T00:22:26.000Z,8.08
2023-05-21T00:27:25.000Z,8.72
2023-05-21T00:32:25.000Z,8.54
2023-05-21T00:37:25.000Z,8.03
2023-05-21T00:42:26.000Z,7.73
2023-05-21T00:47:25.000Z,7.18
2023-05-21T00:52:26.000Z,6.6
2023-05-21T00:57:25.000Z,6.62
2023-05-21T01:02:25.000Z,6.78
2023-05-21T01:07:26.000Z,6.82
2023-05-21T01:12:26.000Z,6.78
2023-05-21T01:17:25.000Z,6.83
2023-05-21T01:22:25.000Z,6.94
2023-05-21T01:27:25.000Z,6.97
2023-05-21T01:32:26.000Z,7.43
2023-05-21T01:37:25.000Z,7.13
2023-05-21T01:42:25.000Z,7.26
2023-05-21T01:47:25.000Z,7.14
2023-05-21T01:52:25.000Z,7.18
2023-05-21T01:57:25.000Z,7.8
2023-05-21T02:02:25.000Z,7.72
2023-05-21T02:07:26.000Z,7.99
2023-05-21T02:12:25.000Z,8.38
2023-05-21T02:17:25.000Z,8.33
2023-05-21T02:22:26.000Z,8.6
2023-05-21T02:27:26.000Z,8.61
2023-05-21T02:32:26.000Z,8.62
2023-05-21T02:37:25.000Z,8.62
2023-05-21T02:42:25.000Z,8.53
2023-05-21T02:47:25.000Z,8.73
2023-05-21T02:52:25.000Z,8.46
2023-05-21T02:57:25.000Z,8.39
2023-05-21T03:02:26.000Z,8.17
2023-05-21T03:07:26.000Z,8
2023-05-21T03:12:26.000Z,8.28
2023-05-21T03:17:25.000Z,8.43
2023-05-21T03:22:26.000Z,9.12
2023-05-21T03:27:25.000Z,9.3
2023-05-21T03:32:26.000Z,9.14
2023-05-21T03:37:25.000Z,8.57
2023-05-21T03:42:25.000Z,8.14
2023-05-21T03:47:25.000Z,7.88
2023-05-21T03:52:26.000Z,7.84
2023-05-21T03:57:25.000Z,7.69
2023-05-21T04:02:26.000Z,7.27
2023-05-21T04:07:26.000Z,6.83
2023-05-21T04:12:25.000Z,5.98
2023-05-21T04:17:25.000Z,5.54
2023-05-21T04:22:26.000Z,5.43
2023-05-21T04:27:25.000Z,5.53
2023-05-21T04:32:25.000Z,5.53
2023-05-21T04:37:25.000Z,5.96
2023-05-21T04:42:25.000Z,5.9
2023-05-21T04:47:25.000Z,5.64
2023-05-21T04:52:25.000Z,5.98
2023-05-21T04:57:25.000Z,5.31
2023-05-21T05:02:25.000Z,5.26
2023-05-21T05:07:25.000Z,5.54
2023-05-21T05:12:25.000Z,5.82
2023-05-21T05:17:25.000Z,5.8
2023-05-21T05:22:26.000Z,5.79
2023-05-21T05:27:25.000Z,5.57
2023-05-21T05:32:26.000Z,5.29
2023-05-21T05:37:26.000Z,4.55
2023-05-21T05:42:25.000Z,4.06
2023-05-21T05:47:25.000Z,4.76
2023-05-21T05:52:25.000Z,5.21
2023-05-21T05:57:25.000Z,5.65
2023-05-21T06:02:26.000Z,5.2
2023-05-21T06:07:25.000Z,4.83
2023-05-21T06:12:25.000Z,4.85
2023-05-21T06:17:25.000Z,5.18
2023-05-21T06:22:25.000Z,5.3
2023-05-21T06:27:25.000Z,5.41
2023-05-21T06:32:25.000Z,5.54
2023-05-21T06:37:25.000Z,5.12
2023-05-21T06:42:26.000Z,5.04
2023-05-21T06:47:25.000Z,4.63
2023-05-21T06:52:26.000Z,4.29
2023-05-21T06:57:25.000Z,4.47
2023-05-21T07:02:26.000Z,4.31
2023-05-21T07:07:25.000Z,3.33
2023-05-21T07:12:25.000Z,3.47
2023-05-21T07:17:25.000Z,3.75
2023-05-21T07:22:25.000Z,3.81
2023-05-21T07:27:25.000Z,4.26
2023-05-21T07:32:24.000Z,4.66
2023-05-21T07:37:25.000Z,4.9
2023-05-21T07:42:25.000Z,4.88
2023-05-21T07:47:25.000Z,4.97
2023-05-21T07:52:25.000Z,4.99
2023-05-21T07:57:26.000Z,5.03
2023-05-21T08:02:25.000Z,5.27
2023-05-21T08:07:25.000Z,5.23
2023-05-21T08:12:25.000Z,5.33
2023-05-21T08:17:26.000Z,5.17
2023-05-21T08:22:25.000Z,5.44
2023-05-21T08:27:25.000Z,5.47
2023-05-21T08:32:25.000Z,5.17
2023-05-21T08:37:26.000Z,5.42
2023-05-21T08:42:25.000Z,5.18
2023-05-21T08:47:25.000Z,5.02
2023-05-21T08:52:26.000Z,4.6
2023-05-21T08:57:25.000Z,4.29
2023-05-21T09:02:26.000Z,4.18
2023-05-21T09:07:25.000Z,4.66
2023-05-21T09:12:25.000Z,4.26
2023-05-21T09:17:25.000Z,4.23
2023-05-21T09:22:26.000Z,4.04
2023-05-21T09:27:25.000Z,3.97
2023-05-21T09:32:26.000Z,4.32
2023-05-21T09:37:26.000Z,4.96
2023-05-21T09:42:25.000Z,4.41
2023-05-21T09:47:25.000Z,4.63
2023-05-21T09:52:25.000Z,4.49
2023-05-21T09:57:25.000Z,4.35
2023-05-21T10:02:25.000Z,10.96
